Time;durP1;ratioP1;P1;durP2;ratioP2;P2;SDS_P1;SDS_P2;PMS_P1;PMS_P2;Temp;Humidity;BMP_temperature;BMP_pressure;BME280_temperature;BME280_humidity;BME280_pressure;Samples;Min_cycle;Max_cycle;Signal;HPM_P1;HPM_P2
2021/04/17 00:01:50;;;;;;;7.97;5.72;;;;;;;5.07;58.73;101265.94;5076558;28;20040;-73
2021/04/17 00:04:19;;;;;;;9.20;6.13;;;;;;;5.16;58.50;101272.66;5095789;28;20055;-73
2021/04/17 00:06:47;;;;;;;8.63;5.60;;;;;;;5.24;58.26;101269.44;5095612;28;20485;-73
2021/04/17 00:09:16;;;;;;;10.02;5.95;;;;;;;5.27;58.24;101266.19;5095916;28;20059;-73
2021/04/17 00:11:46;;;;;;;8.50;5.80;;;;;;;5.29;58.45;101264.00;5095170;28;20052;-73
2021/04/17 00:14:22;;;;;;;8.05;5.82;;;;;;;5.31;58.64;101276.69;5095974;28;20063;-73
2021/04/17 00:16:50;;;;;;;7.35;6.03;;;;;;;5.31;58.84;101262.88;5095989;28;20048;-73
2021/04/17 00:19:17;;;;;;;7.43;6.03;;;;;;;5.30;58.56;101264.81;5095748;28;20071;-73
2021/04/17 00:21:44;;;;;;;10.55;6.03;;;;;;;5.23;58.69;101259.50;5095407;28;20052;-73
2021/04/17 00:24:10;;;;;;;8.73;6.10;;;;;;;5.20;58.12;101260.00;5093612;28;20051;-73
2021/04/17 00:26:38;;;;;;;8.50;6.00;;;;;;;5.15;58.45;101257.19;5095264;28;20070;-73
2021/04/17 00:29:06;;;;;;;8.45;5.57;;;;;;;5.13;58.34;101264.09;5095298;28;20427;-73
2021/04/17 00:31:34;;;;;;;8.43;5.90;;;;;;;5.06;58.40;101269.78;5094989;28;20056;-73
2021/04/17 00:34:01;;;;;;;8.82;6.53;;;;;;;5.01;58.37;101264.22;5095508;28;20052;-73
2021/04/17 00:36:28;;;;;;;8.90;6.38;;;;;;;4.99;58.67;101264.47;5095097;28;20051;-73
2021/04/17 00:38:56;;;;;;;8.13;6.68;;;;;;;5.01;58.87;101266.97;5086937;28;20059;-73
2021/04/17 00:41:23;;;;;;;8.45;6.00;;;;;;;5.02;59.26;101261.19;5087293;28;20504;-73
2021/04/17 00:43:51;;;;;;;7.10;5.65;;;;;;;5.04;59.32;101263.69;5094667;28;20044;-73
2021/04/17 00:46:19;;;;;;;8.07;5.78;;;;;;;5.06;59.10;101258.72;5094827;28;20526;-73
2021/04/17 00:48:47;;;;;;;10.68;6.30;;;;;;;5.12;59.41;101262.41;5094782;28;20056;-73
2021/04/17 00:51:15;;;;;;;8.23;5.88;;;;;;;5.17;59.02;101260.53;5094509;28;20048;-73
2021/04/17 00:53:43;;;;;;;9.25;6.55;;;;;;;5.19;58.93;101261.13;5094276;28;20457;-73
2021/04/17 00:56:11;;;;;;;8.20;6.60;;;;;;;5.24;59.14;101254.81;5081170;28;20052;-73
2021/04/17 00:58:39;;;;;;;8.20;6.00;;;;;;;5.26;58.95;101256.22;5074218;28;20052;-73
2021/04/17 01:01:07;;;;;;;8.95;6.22;;;;;;;5.28;59.49;101256.78;5074150;28;20055;-73
2021/04/17 01:03:47;;;;;;;9.05;6.35;;;;;;;5.33;58.79;101266.22;5074475;28;20055;-73
2021/04/17 01:06:20;;;;;;;8.50;6.90;;;;;;;5.36;59.29;101260.19;5084629;28;20087;-73
2021/04/17 01:08:53;;;;;;;9.90;6.60;;;;;;;5.41;58.63;101263.00;5094044;28;20051;-73
2021/04/17 01:11:26;;;;;;;8.63;6.75;;;;;;;5.43;58.85;101260.81;5093275;28;20047;-73
2021/04/17 01:13:55;;;;;;;10.15;6.85;;;;;;;5.37;59.39;101261.84;5094163;28;20048;-73
2021/04/17 01:16:23;;;;;;;10.52;6.72;;;;;;;5.37;59.41;101259.91;5094197;28;20504;-73
2021/04/17 01:18:52;;;;;;;8.63;6.28;;;;;;;5.40;59.35;101261.34;5094108;28;20477;-73
2021/04/17 01:21:20;;;;;;;8.75;6.55;;;;;;;5.41;58.96;101263.81;5094110;28;20409;-73
2021/04/17 01:23:54;;;;;;;11.02;6.88;;;;;;;5.34;58.83;101267.91;5092406;28;20045;-73
2021/04/17 01:26:24;;;;;;;9.75;6.72;;;;;;;5.29;59.42;101264.00;5094339;28;20453;-73
2021/04/17 01:28:54;;;;;;;8.90;6.38;;;;;;;5.16;59.14;101258.84;5094382;28;20056;-73
2021/04/17 01:31:29;;;;;;;10.43;7.30;;;;;;;5.11;59.30;101261.56;5094574;28;20517;-73
2021/04/17 01:33:58;;;;;;;10.48;6.50;;;;;;;4.99;59.18;101260.88;5093761;28;20048;-73
2021/04/17 01:36:29;;;;;;;9.05;6.75;;;;;;;4.93;59.26;101270.19;5094741;28;20056;-73
2021/04/17 01:39:00;;;;;;;8.82;6.30;;;;;;;4.85;59.60;101266.78;5086468;28;20053;-73
2021/04/17 01:41:31;;;;;;;8.93;6.82;;;;;;;4.80;59.36;101263.13;5074180;28;20044;-73
2021/04/17 01:44:02;;;;;;;8.25;6.45;;;;;;;4.76;59.61;101268.31;5073238;28;20504;-73
2021/04/17 01:46:29;;;;;;;;;;;;;;;4.66;59.43;101260.75;5074802;28;20051;-73
2021/04/17 01:49:00;;;;;;;8.25;6.38;;;;;;;4.57;59.58;101255.91;5074486;28;19920;-73
2021/04/17 01:51:29;;;;;;;10.00;6.75;;;;;;;4.48;60.07;101252.75;5074161;28;20063;-73
2021/04/17 01:53:59;;;;;;;8.80;7.07;;;;;;;4.46;59.90;101252.19;5083931;28;20043;-73
2021/04/17 01:56:30;;;;;;;13.02;8.45;;;;;;;4.44;60.16;101240.56;5094012;28;20413;-73
2021/04/17 01:59:01;;;;;;;9.27;6.97;;;;;;;4.32;60.84;101248.94;5094148;28;20044;-73
2021/04/17 02:01:28;;;;;;;10.57;6.97;;;;;;;4.23;60.83;101245.78;5089226;28;20056;-73
2021/04/17 02:03:55;;;;;;;9.35;7.18;;;;;;;4.19;60.67;101243.78;5074370;28;20375;-73
2021/04/17 02:06:22;;;;;;;8.95;7.05;;;;;;;4.18;60.73;101242.09;5085807;28;20122;-73
2021/04/17 02:08:49;;;;;;;13.35;7.93;;;;;;;4.16;61.37;101244.28;5093731;28;20055;-73
2021/04/17 02:11:16;;;;;;;8.50;6.80;;;;;;;4.13;61.13;101245.63;5093062;28;20055;-73
2021/04/17 02:13:44;;;;;;;10.18;7.63;;;;;;;4.13;60.46;101244.81;5093280;28;20048;-73
2021/04/17 02:16:16;;;;;;;11.52;7.43;;;;;;;4.07;60.53;101246.63;5093229;28;20048;-73
2021/04/17 02:18:53;;;;;;;11.38;6.82;;;;;;;3.99;60.37;101250.66;5093041;28;20059;-73
2021/04/17 02:21:31;;;;;;;11.73;6.55;;;;;;;3.90;61.50;101246.63;5093650;28;20059;-73
2021/04/17 02:23:58;;;;;;;10.68;6.80;;;;;;;3.88;61.22;101250.75;5091065;28;20115;-73
2021/04/17 02:26:26;;;;;;;8.80;6.63;;;;;;;3.86;61.28;101249.09;5093134;28;20060;-73
2021/04/17 02:28:54;;;;;;;9.63;7.40;;;;;;;3.85;61.22;101249.34;5093001;28;20469;-73
2021/04/17 02:31:21;;;;;;;9.32;6.63;;;;;;;3.80;60.87;101240.97;5093070;28;20056;-73
2021/04/17 02:33:48;;;;;;;8.90;6.63;;;;;;;3.75;61.83;101241.72;5092778;28;20052;-73
2021/04/17 02:36:15;;;;;;;8.82;6.30;;;;;;;3.66;61.08;101235.78;5092992;28;20056;-73
2021/04/17 02:38:42;;;;;;;8.02;6.43;;;;;;;3.61;61.85;101238.47;5086747;28;20052;-73
2021/04/17 02:41:09;;;;;;;10.75;6.47;;;;;;;3.56;61.97;101243.88;5072670;28;20056;-73
2021/04/17 02:43:36;;;;;;;8.60;6.03;;;;;;;3.50;62.03;101241.28;5073121;28;20056;-73
2021/04/17 02:46:04;;;;;;;9.77;6.82;;;;;;;3.42;61.80;101228.75;5072846;28;20052;-73
2021/04/17 02:48:31;;;;;;;9.02;6.65;;;;;;;3.38;62.00;101230.31;5072550;28;20060;-73
2021/04/17 02:50:58;;;;;;;9.52;7.18;;;;;;;3.34;62.61;101231.91;5073003;28;20143;-73
2021/04/17 02:53:24;;;;;;;9.32;7.30;;;;;;;3.30;62.08;101236.22;5074023;28;20049;-73
2021/04/17 02:55:51;;;;;;;12.07;8.30;;;;;;;3.25;62.99;101237.84;5073216;28;20053;-73
2021/04/17 02:58:18;;;;;;;11.15;7.80;;;;;;;3.18;62.79;101239.88;5072262;28;20056;-73
2021/04/17 03:00:45;;;;;;;10.35;7.95;;;;;;;3.15;63.16;101234.88;5072130;28;20063;-73
2021/04/17 03:03:12;;;;;;;10.73;7.80;;;;;;;3.12;63.25;101235.34;5072681;28;20056;-73
2021/04/17 03:05:41;;;;;;;9.45;6.82;;;;;;;3.04;63.60;101236.59;5078875;28;20417;-73
2021/04/17 03:08:08;;;;;;;10.07;7.03;;;;;;;3.05;63.19;101232.75;5092861;28;20420;-73
2021/04/17 03:10:35;;;;;;;10.45;7.22;;;;;;;3.04;63.83;101239.34;5093007;28;20453;-73
2021/04/17 03:13:03;;;;;;;10.63;7.13;;;;;;;3.04;64.12;101233.84;5092708;28;20052;-73
2021/04/17 03:15:30;;;;;;;9.68;7.47;;;;;;;3.05;64.14;101237.44;5092824;28;20066;-73
2021/04/17 03:17:57;;;;;;;9.82;7.50;;;;;;;3.06;64.50;101241.84;5093243;28;20059;-73
2021/04/17 03:20:25;;;;;;;12.25;7.15;;;;;;;3.07;64.29;101237.16;5096972;28;20055;-73
2021/04/17 03:22:52;;;;;;;10.25;7.13;;;;;;;3.09;64.48;101241.38;5096169;28;20048;-73
2021/04/17 03:25:19;;;;;;;11.07;6.78;;;;;;;3.01;64.45;101241.75;5079236;28;20049;-73
2021/04/17 03:27:46;;;;;;;9.90;6.97;;;;;;;3.01;64.58;101233.50;5080174;28;20060;-73
2021/04/17 03:30:17;;;;;;;10.25;6.45;;;;;;;2.96;64.80;101231.50;5081215;28;20056;-72
2021/04/17 03:32:44;;;;;;;9.60;6.38;;;;;;;2.98;64.03;101229.34;5089910;28;20052;-72
2021/04/17 03:35:13;;;;;;;9.50;6.32;;;;;;;2.97;63.34;101226.81;5101306;28;20059;-72
2021/04/17 03:37:41;;;;;;;8.82;6.25;;;;;;;2.92;63.62;101233.06;5100006;28;20052;-72
2021/04/17 03:40:10;;;;;;;9.75;6.20;;;;;;;2.89;63.78;101230.78;5101157;28;20059;-73
2021/04/17 03:42:37;;;;;;;9.20;6.68;;;;;;;2.82;64.07;101232.84;5100834;28;20048;-73
2021/04/17 03:45:05;;;;;;;10.35;6.93;;;;;;;2.78;64.20;101227.00;5100303;28;20055;-72
2021/04/17 03:47:33;;;;;;;9.82;6.65;;;;;;;2.75;64.65;101234.88;5101171;28;20048;-73
2021/04/17 03:50:00;;;;;;;8.63;6.18;;;;;;;2.74;64.14;101239.56;5100572;28;20504;-72
2021/04/17 03:52:27;;;;;;;10.02;6.65;;;;;;;2.74;64.66;101239.56;5086044;28;20057;-73
2021/04/17 03:54:57;;;;;;;9.52;6.32;;;;;;;2.78;64.34;101235.25;5078375;28;20048;-74
2021/04/17 03:57:26;;;;;;;11.07;6.65;;;;;;;2.80;63.58;101235.84;5079310;28;20048;-74
2021/04/17 03:59:53;;;;;;;8.60;6.38;;;;;;;2.81;63.74;101239.41;5079221;28;20414;-74
2021/04/17 04:02:20;;;;;;;8.52;5.93;;;;;;;2.80;63.71;101240.50;5076059;28;20482;-74
2021/04/17 04:04:46;;;;;;;9.88;5.75;;;;;;;2.77;63.83;101239.09;5075064;28;20052;-73
2021/04/17 04:07:13;;;;;;;8.88;6.00;;;;;;;2.72;63.35;101241.72;5081989;28;20044;-74
2021/04/17 04:09:40;;;;;;;9.77;6.35;;;;;;;2.70;63.95;101243.03;5075512;28;20163;-73
2021/04/17 04:12:09;;;;;;;10.90;6.47;;;;;;;2.66;64.06;101253.69;5075431;28;20056;-74
2021/04/17 04:14:36;;;;;;;8.55;6.40;;;;;;;2.63;64.32;101246.75;5075081;28;20063;-74
2021/04/17 04:17:03;;;;;;;10.18;6.10;;;;;;;2.58;64.29;101243.06;5075124;28;20056;-74
2021/04/17 04:19:30;;;;;;;11.15;6.85;;;;;;;2.56;64.80;101246.06;5075511;28;20052;-74
2021/04/17 04:21:57;;;;;;;9.10;6.72;;;;;;;2.53;64.38;101251.22;5088713;28;20052;-74
2021/04/17 04:24:24;;;;;;;11.05;6.90;;;;;;;2.52;64.98;101257.78;5094651;28;20055;-74
2021/04/17 04:26:50;;;;;;;8.52;5.75;;;;;;;2.56;64.46;101259.81;5095316;28;20052;-73
2021/04/17 04:29:18;;;;;;;10.23;6.75;;;;;;;2.57;64.31;101253.22;5094659;28;20063;-72
2021/04/17 04:31:45;;;;;;;9.70;6.45;;;;;;;2.60;64.08;101247.25;5093860;28;20385;-73
2021/04/17 04:34:11;;;;;;;8.48;5.97;;;;;;;2.62;64.06;101255.25;5094733;28;20445;-74
2021/04/17 04:36:38;;;;;;;10.13;6.10;;;;;;;2.61;64.02;101261.84;5094809;28;20052;-73
2021/04/17 04:39:07;;;;;;;8.20;5.70;;;;;;;2.58;63.74;101256.81;5085100;28;20055;-73
2021/04/17 04:41:38;;;;;;;8.10;6.00;;;;;;;2.55;64.09;101263.63;5075717;28;20045;-73
2021/04/17 04:44:05;;;;;;;8.77;5.80;;;;;;;2.55;63.92;101255.38;5074142;28;20497;-73
2021/04/17 04:46:37;;;;;;;8.43;6.00;;;;;;;2.53;63.57;101265.78;5074106;28;20075;-73
2021/04/17 04:49:04;;;;;;;9.07;6.45;;;;;;;2.50;64.23;101260.78;5074594;28;20052;-73
2021/04/17 04:51:30;;;;;;;11.27;6.28;;;;;;;2.48;63.80;101262.09;5073969;28;20458;-73
2021/04/17 04:53:57;;;;;;;9.52;5.97;;;;;;;2.47;63.93;101264.00;5073995;28;20076;-73
2021/04/17 04:56:24;;;;;;;10.60;6.90;;;;;;;2.51;64.24;101256.94;5087341;28;20055;-73
2021/04/17 04:58:51;;;;;;;9.07;5.55;;;;;;;2.57;63.99;101263.41;5094274;28;20052;-73
2021/04/17 05:01:18;;;;;;;9.13;5.93;;;;;;;2.64;63.69;101264.09;5094340;28;20055;-73
2021/04/17 05:03:46;;;;;;;9.23;5.85;;;;;;;2.69;63.34;101264.22;5094086;28;20043;-73
2021/04/17 05:06:13;;;;;;;9.20;5.43;;;;;;;2.67;62.82;101277.38;5093886;28;20059;-73
2021/04/17 05:08:40;;;;;;;8.65;5.85;;;;;;;2.69;63.43;101266.97;5094159;28;20369;-74
2021/04/17 05:11:06;;;;;;;8.32;5.82;;;;;;;2.72;63.34;101265.66;5093800;28;20056;-74
2021/04/17 05:13:36;;;;;;;7.95;5.85;;;;;;;2.75;63.81;101268.75;5093901;28;20382;-74
2021/04/17 05:16:03;;;;;;;9.00;5.90;;;;;;;2.82;63.69;101258.44;5093818;28;20058;-73
2021/04/17 05:18:30;;;;;;;10.18;6.50;;;;;;;2.93;63.54;101261.41;5093994;28;20063;-74
2021/04/17 05:20:57;;;;;;;8.25;6.25;;;;;;;3.01;63.43;101270.09;5093900;28;20489;-74
2021/04/17 05:23:24;;;;;;;8.45;5.90;;;;;;;3.14;63.34;101260.72;5092046;28;20048;-74
2021/04/17 05:25:51;;;;;;;9.55;6.95;;;;;;;3.24;62.76;101255.41;5096096;28;20052;-74
2021/04/17 05:28:18;;;;;;;9.07;6.00;;;;;;;3.36;62.20;101257.28;5093776;28;20055;-74
2021/04/17 05:30:45;;;;;;;9.30;6.10;;;;;;;3.44;62.33;101266.00;5093887;28;20052;-73
2021/04/17 05:33:12;;;;;;;8.93;6.50;;;;;;;3.57;62.20;101258.47;5093623;28;20472;-74
2021/04/17 05:35:39;;;;;;;9.73;5.93;;;;;;;3.60;62.71;101258.00;5093585;28;20052;-74
2021/04/17 05:38:06;;;;;;;9.35;6.35;;;;;;;3.66;62.24;101257.81;5093161;28;20047;-72
2021/04/17 05:40:35;;;;;;;8.43;6.13;;;;;;;3.74;61.70;101264.84;5093566;28;20134;-73
2021/04/17 05:43:05;;;;;;;8.67;6.33;;;;;;;3.82;61.69;101261.69;5092749;28;20062;-73
2021/04/17 05:45:31;;;;;;;9.38;6.50;;;;;;;3.89;61.04;101261.53;5093440;28;20048;-73
2021/04/17 05:47:58;;;;;;;8.82;6.30;;;;;;;3.99;61.40;101260.84;5093491;28;20405;-72
2021/04/17 05:50:25;;;;;;;9.20;5.88;;;;;;;4.06;60.68;101256.84;5093151;28;20056;-72
2021/04/17 05:52:52;;;;;;;8.27;6.03;;;;;;;4.19;60.97;101258.41;5092241;28;20059;-73
2021/04/17 05:55:20;;;;;;;10.40;7.15;;;;;;;4.31;61.00;101257.50;5092839;28;20432;-73
2021/04/17 05:57:46;;;;;;;8.48;6.80;;;;;;;4.41;60.37;101263.97;5093300;28;20060;-73
2021/04/17 06:00:14;;;;;;;9.45;6.68;;;;;;;4.50;60.02;101256.09;5093739;28;20060;-73
2021/04/17 06:02:41;;;;;;;10.23;6.30;;;;;;;4.62;59.36;101254.06;5081029;28;20048;-72
2021/04/17 06:05:09;;;;;;;14.60;6.25;;;;;;;4.75;60.87;101255.63;5074799;28;20048;-73
2021/04/17 06:07:36;;;;;;;9.27;6.18;;;;;;;5.00;62.13;101254.28;5093295;28;20063;-73
2021/04/17 06:10:04;;;;;;;8.60;5.78;;;;;;;5.20;59.98;101260.00;5093273;28;20047;-73
2021/04/17 06:12:31;;;;;;;10.85;6.07;;;;;;;5.33;58.03;101252.41;5093349;28;20481;-73
2021/04/17 06:14:58;;;;;;;9.05;5.50;;;;;;;5.46;57.25;101249.25;5093189;28;20064;-73
2021/04/17 06:17:25;;;;;;;8.02;5.70;;;;;;;5.64;56.61;101253.56;5092766;28;20503;-73
2021/04/17 06:19:52;;;;;;;8.55;5.75;;;;;;;5.83;56.20;101262.28;5093056;28;20048;-73
2021/04/17 06:22:18;;;;;;;8.73;6.22;;;;;;;5.95;56.21;101260.22;5092706;28;20063;-73
2021/04/17 06:24:45;;;;;;;7.57;5.68;;;;;;;6.15;55.81;101264.22;5091000;28;20405;-73
2021/04/17 06:27:12;;;;;;;9.32;5.60;;;;;;;6.26;55.21;101260.47;5092828;28;20066;-73
2021/04/17 06:29:40;;;;;;;8.95;6.63;;;;;;;6.39;54.83;101257.22;5093250;28;20059;-73
2021/04/17 06:32:10;;;;;;;7.28;5.40;;;;;;;6.55;54.43;101263.69;5092983;28;20048;-73
2021/04/17 06:34:37;;;;;;;9.68;5.95;;;;;;;6.70;53.64;101254.63;5092859;28;20401;-74
2021/04/17 06:37:04;;;;;;;7.45;5.22;;;;;;;6.74;53.34;101250.22;5092939;28;20063;-73
2021/04/17 06:39:31;;;;;;;10.27;6.32;;;;;;;6.92;53.74;101257.19;5092455;28;20063;-74
2021/04/17 06:42:01;;;;;;;9.55;6.28;;;;;;;7.05;53.79;101240.06;5091940;28;20044;-74
2021/04/17 06:44:29;;;;;;;9.75;6.60;;;;;;;7.21;53.80;101248.44;5092421;28;20048;-74
2021/04/17 06:46:58;;;;;;;7.97;5.88;;;;;;;7.35;53.23;101243.19;5088095;28;20063;-73
2021/04/17 06:49:27;;;;;;;9.52;6.13;;;;;;;7.46;52.54;101245.72;5087718;28;20051;-74
2021/04/17 06:51:55;;;;;;;11.15;6.15;;;;;;;7.59;52.13;101244.34;5092355;28;20397;-73
2021/04/17 06:54:26;;;;;;;9.27;5.93;;;;;;;7.67;52.43;101241.03;5094945;28;20052;-73
2021/04/17 06:56:52;;;;;;;11.00;5.95;;;;;;;7.77;52.19;101244.91;5096906;28;20056;-73
2021/04/17 06:59:19;;;;;;;10.13;6.05;;;;;;;7.92;51.72;101242.16;5096232;28;20048;-73
2021/04/17 07:01:47;;;;;;;11.63;6.68;;;;;;;8.04;50.93;101236.31;5096495;28;20056;-73
2021/04/17 07:04:14;;;;;;;10.40;6.82;;;;;;;8.15;50.82;101229.66;5096757;28;20055;-73
2021/04/17 07:06:42;;;;;;;9.50;6.10;;;;;;;8.26;51.78;101236.03;5091349;28;20497;-73
2021/04/17 07:09:09;;;;;;;11.05;6.55;;;;;;;8.39;51.44;101237.41;5089014;28;20048;-73
2021/04/17 07:11:36;;;;;;;9.63;5.90;;;;;;;8.48;50.60;101228.25;5091687;28;20052;-73
2021/04/17 07:14:13;;;;;;;9.70;5.22;;;;;;;8.69;50.25;101222.59;5095101;28;20477;-73
2021/04/17 07:17:00;;;;;;;9.23;5.55;;;;;;;8.88;49.94;101237.56;5095850;28;20052;-73
2021/04/17 07:19:49;;;;;;;9.30;5.70;;;;;;;9.17;49.14;101228.50;5076189;28;20056;-73
2021/04/17 07:22:18;;;;;;;9.60;6.20;;;;;;;9.43;47.94;101234.75;5076343;28;20067;-73
2021/04/17 07:24:45;;;;;;;9.32;6.07;;;;;;;9.75;47.66;101223.09;5093925;28;20044;-73
2021/04/17 07:27:37;;;;;;;9.15;6.25;;;;;;;10.35;46.64;101236.81;5096111;28;20048;-73
2021/04/17 07:30:08;;;;;;;7.38;5.30;;;;;;;11.55;43.11;101221.06;5096464;28;20071;-73
2021/04/17 07:32:35;;;;;;;7.50;5.55;;;;;;;13.09;39.46;101221.03;5096129;28;20058;-73
2021/04/17 07:35:13;;;;;;;10.45;5.47;;;;;;;14.54;36.28;101220.00;5095987;28;20044;-73
2021/04/17 07:37:43;;;;;;;7.45;4.75;;;;;;;15.82;33.51;101214.16;5095961;28;20052;-73
2021/04/17 07:40:19;;;;;;;7.18;5.20;;;;;;;17.00;32.10;101206.34;5092760;28;20052;-73
2021/04/17 07:42:47;;;;;;;7.68;4.97;;;;;;;18.11;29.44;101209.81;5089016;28;20043;-73
2021/04/17 07:45:25;;;;;;;7.25;4.75;;;;;;;19.20;27.89;101210.28;5093522;28;20052;-73
2021/04/17 07:47:54;;;;;;;6.90;4.82;;;;;;;20.07;26.47;101208.81;5093337;28;20052;-73
2021/04/17 07:50:22;;;;;;;8.25;5.28;;;;;;;20.80;26.08;101203.91;5090480;28;20382;-73
2021/04/17 07:52:54;;;;;;;6.75;4.88;;;;;;;21.60;24.10;101196.03;5090048;28;20052;-73
2021/04/17 07:55:22;;;;;;;8.93;5.47;;;;;;;22.26;22.70;101197.81;5092360;28;20048;-73
2021/04/17 07:57:55;;;;;;;6.47;4.90;;;;;;;22.19;23.20;101197.63;5093502;28;20047;-73
2021/04/17 08:00:23;;;;;;;8.38;5.97;;;;;;;21.40;23.68;101201.69;5093774;28;20052;-73
2021/04/17 08:02:52;;;;;;;8.23;5.60;;;;;;;21.58;23.73;101185.06;5082123;28;20558;-73
2021/04/17 08:05:20;;;;;;;7.70;5.70;;;;;;;22.12;23.13;101191.84;5092147;28;20052;-73
2021/04/17 08:07:48;;;;;;;11.30;5.00;;;;;;;23.18;21.57;101196.94;5090786;28;20048;-73
2021/04/17 08:10:16;;;;;;;8.00;5.00;;;;;;;23.61;20.74;101191.84;5090532;28;20049;-72
2021/04/17 08:12:44;;;;;;;6.82;4.85;;;;;;;24.36;19.64;101185.38;5093018;28;20545;-73
2021/04/17 08:15:16;;;;;;;6.50;4.78;;;;;;;24.71;19.67;101180.06;5095056;28;20067;-73
2021/04/17 08:17:45;;;;;;;5.85;4.32;;;;;;;25.47;18.32;101186.25;5082791;28;20051;-73
2021/04/17 08:20:17;;;;;;;5.35;3.95;;;;;;;25.59;18.04;101185.91;5093220;28;20060;-72
2021/04/17 08:22:50;;;;;;;6.22;4.10;;;;;;;26.02;17.45;101191.81;5090739;28;20052;-75
2021/04/17 08:25:21;;;;;;;6.63;4.15;;;;;;;26.26;17.34;101189.41;5092366;28;20048;-74
2021/04/17 08:27:48;;;;;;;6.70;4.03;;;;;;;26.82;16.65;101184.19;5094387;28;20497;-74
2021/04/17 08:30:22;;;;;;;7.25;4.40;;;;;;;26.88;17.03;101177.66;5092861;28;20060;-73
2021/04/17 08:32:49;;;;;;;6.05;4.30;;;;;;;26.02;17.92;101173.88;5092786;28;20075;-72
2021/04/17 08:35:18;;;;;;;12.25;6.53;;;;;;;24.88;18.54;101174.88;5091368;28;20047;-74
2021/04/17 08:38:07;;;;;;;6.55;4.05;;;;;;;24.17;19.32;101177.88;5092219;28;20048;-73
2021/04/17 08:40:52;;;;;;;9.43;4.32;;;;;;;23.66;20.36;101176.44;5092882;28;20130;-76
2021/04/17 08:43:36;;;;;;;9.38;4.38;;;;;;;23.38;20.40;101183.41;5094003;28;20055;-75
2021/04/17 08:46:15;;;;;;;6.57;4.00;;;;;;;23.09;20.61;101180.16;5092169;28;20473;-74
2021/04/17 08:48:48;;;;;;;9.65;4.28;;;;;;;22.61;21.55;101174.06;5089833;28;21695;-74
2021/04/17 08:51:30;;;;;;;5.35;3.58;;;;;;;22.35;21.91;101174.84;5090657;28;20434;-74
2021/04/17 08:54:21;;;;;;;6.95;3.65;;;;;;;21.69;22.32;101168.28;5091924;28;20048;-76
2021/04/17 08:56:55;;;;;;;6.68;3.97;;;;;;;21.11;23.66;101171.06;5093884;28;20052;-75
2021/04/17 08:59:26;;;;;;;6.72;3.45;;;;;;;20.47;24.03;101171.09;5091711;28;20102;-74
2021/04/17 09:01:54;;;;;;;6.72;3.83;;;;;;;20.16;25.08;101167.06;5080186;28;20425;-73
2021/04/17 09:04:24;;;;;;;9.95;4.32;;;;;;;20.06;25.67;101174.06;5091005;28;20051;-75
2021/04/17 09:06:52;;;;;;;;;;;;;;;19.95;26.16;101166.47;5094686;28;20048;-75
2021/04/17 09:09:32;;;;;;;6.55;4.20;;;;;;;20.41;25.00;101166.88;5093974;28;19939;-74
2021/04/17 09:12:18;;;;;;;6.88;3.88;;;;;;;20.61;25.33;101165.00;5094129;28;20063;-76
2021/04/17 09:15:01;;;;;;;5.60;3.80;;;;;;;20.82;24.64;101167.53;5093884;28;20048;-76
2021/04/17 09:17:45;;;;;;;5.90;3.67;;;;;;;20.99;24.23;101161.47;5093372;28;20516;-72
2021/04/17 09:20:39;;;;;;;4.88;3.40;;;;;;;22.29;22.83;101160.16;5093748;28;20066;-74
2021/04/17 09:23:07;;;;;;;5.22;3.53;;;;;;;23.81;20.60;101160.41;5091625;28;20048;-73
2021/04/17 09:25:47;;;;;;;4.60;3.25;;;;;;;24.70;19.38;101149.09;5073549;28;20056;-74
2021/04/17 09:28:17;;;;;;;5.82;3.33;;;;;;;26.15;17.57;101149.44;5072940;28;20402;-74
2021/04/17 09:30:50;;;;;;;7.90;3.58;;;;;;;27.40;16.50;101150.59;5073546;28;20051;-73
2021/04/17 09:33:17;;;;;;;5.90;2.97;;;;;;;28.38;15.38;101152.53;5077552;28;20049;-73
2021/04/17 09:35:47;;;;;;;6.63;2.95;;;;;;;29.12;14.58;101155.97;5073513;28;20049;-73
2021/04/17 09:38:15;;;;;;;5.68;3.30;;;;;;;30.14;13.41;101153.47;5075299;28;20052;-73
2021/04/17 09:40:45;;;;;;;4.70;3.08;;;;;;;30.81;12.74;101147.06;5093761;28;20059;-72
2021/04/17 09:43:28;;;;;;;5.97;3.45;;;;;;;30.73;12.33;101144.31;5092738;28;20040;-72
2021/04/17 09:45:57;;;;;;;8.82;3.35;;;;;;;29.22;13.65;101150.56;5072794;28;20482;-72
2021/04/17 09:48:24;;;;;;;6.47;3.30;;;;;;;28.15;15.23;101147.38;5073261;28;20466;-73
2021/04/17 09:50:56;;;;;;;6.05;2.75;;;;;;;27.29;15.61;101150.63;5071534;28;20059;-73
2021/04/17 09:53:28;;;;;;;6.97;3.35;;;;;;;26.28;16.87;101144.94;5072961;28;20052;-73
2021/04/17 09:55:59;;;;;;;4.95;3.17;;;;;;;25.17;17.58;101143.72;5078517;28;20402;-72
2021/04/17 09:58:30;;;;;;;7.93;3.00;;;;;;;24.31;19.00;101138.16;5090941;28;20048;-73
2021/04/17 10:01:09;;;;;;;5.88;3.30;;;;;;;23.78;19.52;101142.09;5073229;28;20044;-73
2021/04/17 10:03:38;;;;;;;;;;;;;;;23.04;20.72;101135.03;5084146;28;20052;-72
2021/04/17 10:06:22;;;;;;;5.75;3.28;;;;;;;22.37;22.02;101135.56;5092799;28;19927;-72
2021/04/17 10:08:49;;;;;;;8.48;3.78;;;;;;;21.92;22.37;101128.63;5093653;28;20481;-73
2021/04/17 10:11:21;;;;;;;6.53;3.40;;;;;;;21.40;22.86;101118.69;5093458;28;20063;-72
2021/04/17 10:13:49;;;;;;;6.55;3.63;;;;;;;20.83;23.71;101121.03;5090582;28;20058;-69
2021/04/17 10:16:24;;;;;;;6.28;3.47;;;;;;;20.48;24.53;101116.16;5094169;28;20075;-73
2021/04/17 10:18:51;;;;;;;5.95;3.40;;;;;;;20.01;25.27;101111.28;5096927;28;20379;-77
2021/04/17 10:21:24;;;;;;;6.45;3.58;;;;;;;19.71;25.69;101116.53;5080689;28;20052;-71
2021/04/17 10:24:19;;;;;;;6.93;3.45;;;;;;;19.56;26.40;101110.44;5088753;28;20051;-73
2021/04/17 10:26:53;;;;;;;5.57;3.53;;;;;;;19.52;26.15;101105.88;5091372;28;20052;-72
2021/04/17 10:29:31;;;;;;;10.40;4.20;;;;;;;19.13;26.23;101117.69;5091712;28;20052;-71
2021/04/17 10:32:00;;;;;;;7.47;3.50;;;;;;;18.99;27.00;101112.41;5092615;28;20059;-72
2021/04/17 10:34:27;;;;;;;7.75;4.15;;;;;;;18.97;26.73;101111.13;5092796;28;20047;-71
2021/04/17 10:37:02;;;;;;;6.65;3.47;;;;;;;18.95;26.57;101111.47;5082278;28;20052;-71
2021/04/17 10:39:30;;;;;;;7.38;4.03;;;;;;;19.04;26.30;101108.50;5081663;28;20048;-71
2021/04/17 10:42:06;;;;;;;7.60;4.10;;;;;;;19.08;26.23;101106.63;5079769;28;20051;-72
2021/04/17 10:44:35;;;;;;;5.57;3.58;;;;;;;19.44;26.14;101102.88;5092763;28;20056;-72
2021/04/17 10:47:05;;;;;;;16.60;8.35;;;;;;;19.56;26.27;101103.97;5092672;28;20048;-72
2021/04/17 10:49:35;;;;;;;7.88;4.72;;;;;;;19.53;26.09;101110.34;5092619;28;20071;-72
2021/04/17 10:52:05;;;;;;;9.30;4.35;;;;;;;19.65;25.97;101101.81;5092770;28;20052;-72
2021/04/17 10:54:31;;;;;;;;;;;;;;;19.59;26.07;101097.59;5093390;28;20087;-72
2021/04/17 10:57:01;;;;;;;6.10;3.05;;;;;;;19.35;26.39;101110.66;5085122;28;19924;-72
2021/04/17 10:59:53;;;;;;;6.25;3.67;;;;;;;19.34;26.03;101108.19;5072520;28;20056;-72
2021/04/17 11:02:28;;;;;;;8.68;3.92;;;;;;;19.21;25.71;101098.94;5072525;28;20373;-72
2021/04/17 11:04:56;;;;;;;8.90;3.95;;;;;;;19.17;25.37;101100.81;5072513;28;20048;-72
2021/04/17 11:07:31;;;;;;;5.80;3.50;;;;;;;19.12;25.12;101099.06;5092509;28;20063;-72
2021/04/17 11:09:59;;;;;;;5.68;3.53;;;;;;;19.65;23.96;101085.69;5092696;28;20052;-72
2021/04/17 11:12:31;;;;;;;7.18;3.50;;;;;;;20.02;23.23;101096.78;5087407;28;20386;-72
2021/04/17 11:15:16;;;;;;;8.75;4.25;;;;;;;20.28;22.66;101087.78;5092952;28;20090;-72
2021/04/17 11:17:43;;;;;;;6.35;3.38;;;;;;;20.95;21.18;101078.44;5078822;28;20053;-72
2021/04/17 11:20:15;;;;;;;5.63;3.65;;;;;;;20.87;21.45;101087.97;5072281;28;20059;-72
2021/04/17 11:22:42;;;;;;;6.10;3.95;;;;;;;22.38;20.21;101085.28;5071622;28;20052;-72
2021/04/17 11:25:13;;;;;;;4.60;3.10;;;;;;;23.20;18.03;101077.97;5086939;28;20064;-72
2021/04/17 11:27:41;;;;;;;5.78;3.05;;;;;;;23.66;17.59;101079.75;5092193;28;20054;-73
2021/04/17 11:30:10;;;;;;;5.60;3.38;;;;;;;25.35;16.04;101069.69;5092240;28;20071;-72
2021/04/17 11:32:40;;;;;;;5.75;3.13;;;;;;;25.84;15.78;101086.13;5083171;28;20358;-72
2021/04/17 11:35:08;;;;;;;4.50;3.05;;;;;;;24.60;16.50;101076.59;5071280;28;20473;-72
2021/04/17 11:37:37;;;;;;;7.03;2.85;;;;;;;23.99;17.21;101080.94;5072194;28;20067;-72
2021/04/17 11:40:05;;;;;;;5.97;3.10;;;;;;;23.36;16.84;101083.47;5072487;28;20056;-72
2021/04/17 11:42:31;;;;;;;4.80;2.72;;;;;;;22.58;16.67;101091.69;5077357;28;20059;-72